Terminal Aerodrome Forecast
Issued by NWS

Home | Current Version | Previous Version | Text Only | Print | Product List | Glossary Off
Versions: 1 2 3 4 5 6 7 8 9 10 11 12 13 14 15 16 17 18 19

000
FTUS43 KICT 281621 AAB
TAFSLN
TAF AMD
KSLN 281621Z 2816/0112 15010KT 4SM -SN OVC025
      TEMPO 2816/2818 3/4SM -SN BR OVC015
     FM010800 19006KT 4SM -SN BKN008=

USA.gov is the U.S. government's official web portal to all federal, state and local government web resources and services.